Terminal Aerodrome Forecast
Issued by NWS Billings, MT

Home | Current Version | Previous Version | Text Only | Print | Product List | Glossary Off
Versions: 1 2 3 4 5 6 7 8 9 10 11 12 13 14 15 16 17 18 19 20 21 22 23 24 25 26 27 28 29 30 31 32 33 34 35 36

996
FTUS45 KBYZ 141137
TAFMLS
TAF
KMLS 141137Z 1412/1512 25011KT P6SM BKN050
     FM141300 27011KT P6SM VCSH SCT015 BKN035
      TEMPO 1416/1418 28015KT 5SM -SN BKN030
     FM141800 30025G35KT P6SM VCSH SCT030 OVC100
     FM150300 27011KT P6SM BKN050=

USA.gov is the U.S. government's official web portal to all federal, state and local government web resources and services.